createdAt,value
2022-12-08T00:01:32.391Z,3.30
2022-12-08T00:04:01.649Z,3.20
2022-12-08T00:06:49.352Z,3.30
2022-12-08T00:09:38.971Z,3.30
2022-12-08T00:12:09.666Z,3.30
2022-12-08T00:14:39.759Z,3.40
2022-12-08T00:17:08.634Z,3.80
2022-12-08T00:19:37.104Z,3.40
2022-12-08T00:22:05.659Z,3.30
2022-12-08T00:24:35.475Z,3.10
2022-12-08T00:27:03.031Z,3.00
2022-12-08T00:29:30.426Z,2.90
2022-12-08T00:31:58.135Z,2.80
2022-12-08T00:34:25.532Z,2.80
2022-12-08T00:36:52.895Z,2.70
2022-12-08T00:39:20.484Z,2.60
2022-12-08T00:42:06.537Z,2.60
2022-12-08T00:44:33.829Z,3.20
2022-12-08T00:47:01.084Z,2.60
2022-12-08T00:49:28.399Z,2.50
2022-12-08T00:51:55.853Z,2.50
2022-12-08T00:54:24.052Z,2.50
2022-12-08T00:56:51.842Z,3.00
2022-12-08T00:59:19.349Z,2.60
2022-12-08T01:01:47.321Z,2.50
2022-12-08T01:04:17.369Z,2.40
2022-12-08T01:06:45.313Z,2.50
2022-12-08T01:09:14.168Z,2.40
2022-12-08T01:11:41.535Z,2.40
2022-12-08T01:14:13.211Z,3.10
2022-12-08T01:16:44.180Z,2.30
2022-12-08T01:19:13.860Z,2.40
2022-12-08T01:21:42.649Z,2.40
2022-12-08T01:24:21.595Z,2.50
2022-12-08T01:26:50.696Z,2.40
2022-12-08T01:29:18.411Z,2.50
2022-12-08T01:31:46.011Z,2.50
2022-12-08T01:34:13.599Z,2.50
2022-12-08T01:36:42.410Z,2.40
2022-12-08T01:39:15.624Z,2.40
2022-12-08T01:41:43.870Z,2.40
2022-12-08T01:44:11.314Z,2.30
2022-12-08T01:46:41.396Z,2.30
2022-12-08T01:49:26.825Z,2.20
2022-12-08T01:52:03.034Z,2.30
2022-12-08T01:54:40.229Z,2.30
2022-12-08T01:57:12.909Z,2.20
2022-12-08T01:59:46.639Z,2.20
2022-12-08T02:02:14.212Z,2.20
2022-12-08T02:04:41.523Z,2.20
2022-12-08T02:07:10.141Z,2.20
2022-12-08T02:09:38.996Z,2.20
2022-12-08T02:12:08.469Z,2.20
2022-12-08T02:14:36.014Z,2.10
2022-12-08T02:17:33.664Z,2.50
2022-12-08T02:20:36.730Z,2.10
2022-12-08T02:23:19.525Z,2.00
2022-12-08T02:26:24.619Z,2.00
2022-12-08T02:29:16.785Z,2.10
2022-12-08T02:32:02.862Z,2.10
2022-12-08T02:34:41.007Z,2.10
2022-12-08T02:37:39.367Z,2.30
2022-12-08T02:40:15.843Z,2.20
2022-12-08T02:43:13.081Z,2.10
2022-12-08T02:45:43.923Z,2.10
2022-12-08T02:48:11.784Z,2.10
2022-12-08T02:50:39.104Z,2.10
2022-12-08T02:55:42.328Z,2.10
2022-12-08T02:58:28.564Z,2.00
2022-12-08T03:01:27.165Z,2.00
2022-12-08T03:04:05.924Z,2.00
2022-12-08T03:06:48.304Z,2.10
2022-12-08T03:09:33.757Z,2.10
2022-12-08T03:12:43.971Z,3.70
2022-12-08T03:15:15.217Z,2.10
2022-12-08T03:17:49.252Z,2.10
2022-12-08T03:20:21.021Z,2.10
2022-12-08T03:22:50.648Z,2.00
2022-12-08T03:25:22.141Z,1.90
2022-12-08T03:27:51.079Z,1.90
2022-12-08T03:30:18.791Z,1.80
2022-12-08T03:33:25.376Z,1.80
2022-12-08T03:35:54.062Z,1.80
2022-12-08T03:38:22.545Z,1.70
2022-12-08T03:41:09.890Z,1.70
2022-12-08T03:43:37.345Z,1.60
2022-12-08T03:46:04.776Z,1.50
2022-12-08T03:48:32.176Z,1.60
2022-12-08T03:50:59.512Z,1.90
2022-12-08T03:53:26.941Z,1.60
2022-12-08T03:55:54.940Z,1.60
2022-12-08T03:58:22.399Z,1.70
2022-12-08T04:00:49.931Z,1.60
2022-12-08T04:03:17.302Z,1.60
2022-12-08T04:05:44.803Z,1.50
2022-12-08T04:08:12.327Z,1.50
2022-12-08T04:10:39.796Z,1.40
2022-12-08T04:13:07.179Z,1.50
2022-12-08T04:15:34.491Z,1.50
2022-12-08T04:18:01.965Z,1.50
2022-12-08T04:20:29.419Z,1.50
2022-12-08T04:22:56.751Z,1.50
2022-12-08T04:25:24.184Z,1.60
2022-12-08T04:27:51.654Z,1.60
2022-12-08T04:30:19.180Z,1.60
2022-12-08T04:32:47.702Z,1.60
2022-12-08T04:35:15.783Z,1.60
2022-12-08T04:37:44.336Z,1.60
2022-12-08T04:40:15.581Z,1.60
2022-12-08T04:42:43.041Z,1.60
2022-12-08T04:45:11.139Z,1.60
2022-12-08T04:47:41.554Z,1.60
2022-12-08T04:50:19.685Z,1.50
2022-12-08T04:52:47.408Z,1.50
2022-12-08T04:55:14.791Z,1.50
2022-12-08T04:57:42.226Z,1.40
2022-12-08T05:00:10.473Z,1.50
2022-12-08T05:02:38.330Z,1.50
2022-12-08T05:05:06.396Z,1.50
2022-12-08T05:07:34.065Z,1.50
2022-12-08T05:10:01.594Z,1.50
2022-12-08T05:12:28.953Z,1.70
2022-12-08T05:14:56.256Z,1.70
2022-12-08T05:17:23.566Z,1.70
2022-12-08T05:19:50.829Z,1.70
2022-12-08T05:22:18.252Z,1.80
2022-12-08T05:24:47.576Z,1.60
2022-12-08T05:27:15.522Z,2.00
2022-12-08T05:29:43.042Z,1.70
2022-12-08T05:32:10.393Z,1.60
2022-12-08T05:34:37.806Z,1.60
2022-12-08T05:37:05.119Z,1.50
2022-12-08T05:39:32.404Z,1.50
2022-12-08T05:41:59.999Z,1.60
2022-12-08T05:44:27.382Z,1.50
2022-12-08T05:46:54.682Z,1.50
2022-12-08T05:49:21.935Z,2.60
2022-12-08T05:51:49.190Z,1.40
2022-12-08T05:54:16.725Z,1.30
2022-12-08T05:56:44.284Z,1.40
2022-12-08T05:59:11.687Z,1.20
2022-12-08T06:01:39.346Z,1.20
2022-12-08T06:04:09.075Z,1.30
2022-12-08T06:06:36.876Z,1.30
2022-12-08T06:09:09.731Z,1.30
2022-12-08T06:11:37.245Z,1.40
2022-12-08T06:14:04.784Z,1.30
2022-12-08T06:16:32.228Z,2.40
2022-12-08T06:18:59.575Z,1.50
2022-12-08T06:21:26.978Z,1.00
2022-12-08T06:23:55.137Z,1.50
2022-12-08T06:26:22.919Z,1.50
2022-12-08T06:28:53.883Z,1.50
2022-12-08T06:31:26.324Z,1.60
2022-12-08T06:33:55.104Z,2.20
2022-12-08T06:36:25.429Z,1.60
2022-12-08T06:38:52.954Z,1.70
2022-12-08T06:41:20.378Z,1.60
2022-12-08T06:43:47.958Z,1.60
2022-12-08T06:46:18.356Z,1.60
2022-12-08T06:48:46.174Z,1.60
2022-12-08T06:51:17.066Z,1.50
2022-12-08T06:53:46.733Z,1.50
2022-12-08T06:56:15.947Z,1.60
2022-12-08T06:58:48.987Z,1.40
2022-12-08T07:01:19.816Z,1.40
2022-12-08T07:03:47.886Z,1.20
2022-12-08T07:06:18.086Z,1.50
2022-12-08T07:08:45.365Z,1.40
2022-12-08T07:11:16.697Z,1.40
2022-12-08T07:13:48.455Z,0.80
2022-12-08T07:16:15.763Z,1.30
2022-12-08T07:18:44.035Z,1.30
2022-12-08T07:21:13.452Z,1.30
2022-12-08T07:23:41.598Z,1.20
2022-12-08T07:26:11.863Z,1.20
2022-12-08T07:28:41.450Z,1.30
2022-12-08T07:31:25.851Z,1.70
2022-12-08T07:33:54.073Z,1.30
2022-12-08T07:36:22.284Z,4.30
2022-12-08T07:38:50.386Z,1.30
2022-12-08T07:41:23.618Z,1.50
2022-12-08T07:43:52.026Z,1.40
2022-12-08T07:46:22.009Z,1.50
2022-12-08T07:48:49.929Z,1.50
2022-12-08T07:51:17.524Z,1.60
2022-12-08T07:53:51.830Z,1.70
2022-12-08T07:56:21.871Z,1.80
2022-12-08T07:58:51.977Z,1.70
2022-12-08T08:01:24.305Z,1.70
2022-12-08T08:03:52.618Z,1.70
2022-12-08T08:06:19.993Z,1.70
2022-12-08T08:08:47.351Z,1.70
2022-12-08T08:11:20.883Z,1.70
2022-12-08T08:13:50.244Z,1.70
2022-12-08T08:16:18.565Z,3.00
2022-12-08T08:18:49.086Z,1.90
2022-12-08T08:24:05.112Z,1.90
2022-12-08T08:26:32.474Z,1.90
2022-12-08T08:28:59.758Z,1.90
2022-12-08T08:31:27.317Z,1.80
2022-12-08T08:33:55.896Z,1.90
2022-12-08T08:36:23.418Z,1.90
2022-12-08T08:38:51.710Z,1.80
2022-12-08T08:41:19.055Z,2.00
2022-12-08T08:43:46.448Z,2.90
2022-12-08T08:46:14.029Z,2.00
2022-12-08T08:48:41.603Z,2.00
2022-12-08T08:51:14.330Z,1.90
2022-12-08T08:53:42.248Z,2.00
2022-12-08T08:56:14.480Z,2.00
2022-12-08T08:58:42.369Z,2.00
2022-12-08T09:01:14.511Z,1.40
2022-12-08T09:03:41.936Z,2.00
2022-12-08T09:06:09.416Z,2.00
2022-12-08T09:08:36.756Z,2.10
2022-12-08T09:11:04.164Z,2.20
2022-12-08T09:13:31.729Z,2.10
2022-12-08T09:16:07.154Z,2.00
2022-12-08T09:18:35.311Z,2.10
2022-12-08T09:21:13.279Z,2.00
2022-12-08T09:23:40.776Z,2.00
2022-12-08T09:26:08.408Z,2.00
2022-12-08T09:28:36.021Z,2.00
2022-12-08T09:31:03.867Z,1.90
2022-12-08T09:33:31.249Z,2.00
2022-12-08T09:36:03.764Z,2.00
2022-12-08T09:38:31.738Z,1.90
2022-12-08T09:41:00.780Z,2.00
2022-12-08T09:43:48.962Z,2.00
2022-12-08T09:46:18.154Z,2.10
2022-12-08T09:48:56.057Z,2.10
2022-12-08T09:51:25.834Z,2.20
2022-12-08T09:54:00.114Z,2.20
2022-12-08T09:56:33.089Z,2.20
2022-12-08T09:59:22.114Z,2.30
2022-12-08T10:01:49.877Z,2.30
2022-12-08T10:04:29.009Z,2.40
2022-12-08T10:07:24.755Z,2.40
2022-12-08T10:10:29.908Z,2.40
2022-12-08T10:13:18.359Z,2.50
2022-12-08T10:16:07.772Z,2.50
2022-12-08T10:18:35.784Z,2.50
2022-12-08T10:21:16.937Z,2.60
2022-12-08T10:23:49.661Z,2.60
2022-12-08T10:26:19.874Z,2.60
2022-12-08T10:28:48.175Z,2.60
2022-12-08T10:31:18.094Z,2.70
2022-12-08T10:33:48.276Z,2.70
2022-12-08T10:36:15.767Z,2.70
2022-12-08T10:38:43.287Z,2.70
2022-12-08T10:41:10.552Z,2.70
2022-12-08T10:43:59.576Z,2.80
2022-12-08T10:46:28.874Z,2.70
2022-12-08T10:49:03.257Z,2.80
2022-12-08T10:51:40.013Z,2.80
2022-12-08T10:54:39.101Z,3.50
2022-12-08T10:57:06.389Z,2.80
2022-12-08T10:59:34.546Z,2.90
2022-12-08T11:02:03.426Z,3.00
2022-12-08T11:04:38.838Z,2.90
2022-12-08T11:07:08.905Z,4.00
2022-12-08T11:09:49.016Z,2.90
2022-12-08T11:12:17.712Z,2.10
2022-12-08T11:14:55.696Z,3.70
2022-12-08T11:17:22.982Z,3.00
2022-12-08T11:19:59.739Z,3.10
2022-12-08T11:22:38.609Z,3.10
2022-12-08T11:25:10.382Z,3.10
2022-12-08T11:27:40.759Z,2.60
2022-12-08T11:30:21.494Z,3.10
2022-12-08T11:32:57.705Z,3.10
2022-12-08T11:35:33.830Z,3.20
2022-12-08T11:38:25.291Z,3.10
2022-12-08T11:41:15.563Z,3.20
2022-12-08T11:43:52.156Z,3.20
2022-12-08T11:46:31.951Z,3.30
2022-12-08T11:49:06.897Z,3.30
2022-12-08T11:51:52.894Z,3.30
2022-12-08T11:54:40.166Z,3.30
2022-12-08T11:57:16.365Z,3.30
2022-12-08T11:59:49.815Z,3.20
2022-12-08T12:02:24.156Z,3.30
2022-12-08T12:04:57.070Z,3.30
2022-12-08T12:07:26.374Z,3.30
2022-12-08T12:09:59.771Z,3.50
2022-12-08T12:13:04.190Z,3.30
2022-12-08T12:15:50.245Z,3.40
2022-12-08T12:18:29.008Z,3.40
2022-12-08T12:21:07.126Z,3.50
2022-12-08T12:23:41.545Z,3.70
2022-12-08T12:26:18.123Z,3.50
2022-12-08T12:29:16.279Z,3.80
2022-12-08T12:31:49.784Z,3.70
2022-12-08T12:34:22.055Z,3.60
2022-12-08T12:36:51.256Z,3.60
2022-12-08T12:39:44.099Z,3.60
2022-12-08T12:42:45.411Z,3.60
2022-12-08T12:45:19.981Z,3.60
2022-12-08T12:48:01.371Z,3.70
2022-12-08T12:50:34.812Z,3.70
2022-12-08T12:53:15.717Z,3.80
2022-12-08T12:55:46.449Z,5.00
2022-12-08T12:58:20.032Z,4.10
2022-12-08T13:00:47.487Z,3.70
2022-12-08T13:03:17.426Z,3.70
2022-12-08T13:05:52.353Z,3.70
2022-12-08T13:08:27.522Z,3.80
2022-12-08T13:11:05.477Z,3.70
2022-12-08T13:13:33.652Z,3.70
2022-12-08T13:16:19.122Z,3.80
2022-12-08T13:18:52.353Z,3.80
2022-12-08T13:21:22.243Z,3.80
2022-12-08T13:24:21.708Z,3.90
2022-12-08T13:26:51.145Z,3.80
2022-12-08T13:29:22.196Z,3.90
2022-12-08T13:32:04.442Z,3.90
2022-12-08T13:34:49.599Z,5.30
2022-12-08T13:37:21.718Z,4.00
2022-12-08T13:39:59.484Z,3.90
2022-12-08T13:42:56.650Z,3.90
2022-12-08T13:46:04.395Z,4.00
2022-12-08T13:49:41.892Z,4.00
2022-12-08T13:57:36.777Z,4.10
2022-12-08T14:00:18.011Z,4.10
2022-12-08T14:03:00.963Z,4.00
2022-12-08T14:06:11.051Z,4.10
2022-12-08T14:08:59.906Z,4.10
2022-12-08T14:11:36.601Z,4.10
2022-12-08T14:14:14.509Z,4.10
2022-12-08T14:16:58.484Z,4.10
2022-12-08T14:19:28.987Z,4.10
2022-12-08T14:22:18.159Z,4.10
2022-12-08T14:24:47.717Z,4.10
2022-12-08T14:27:24.759Z,5.00
2022-12-08T14:30:00.617Z,4.10
2022-12-08T14:32:58.928Z,3.90
2022-12-08T14:35:33.006Z,4.50
2022-12-08T14:38:05.445Z,4.10
2022-12-08T14:40:42.042Z,4.20
2022-12-08T14:43:09.337Z,4.00
2022-12-08T14:45:42.533Z,4.30
2022-12-08T14:48:42.144Z,4.20
2022-12-08T14:51:18.658Z,4.20
2022-12-08T14:53:47.611Z,4.20
2022-12-08T14:56:27.178Z,4.30
2022-12-08T14:59:09.402Z,4.80
2022-12-08T15:01:37.143Z,4.30
2022-12-08T15:04:20.369Z,4.20
2022-12-08T15:07:21.496Z,4.30
2022-12-08T15:10:05.972Z,5.70
2022-12-08T15:12:33.579Z,4.30
2022-12-08T15:15:17.730Z,4.30
2022-12-08T15:17:48.616Z,4.20
2022-12-08T15:20:35.848Z,4.20
2022-12-08T15:23:03.899Z,4.00
2022-12-08T15:25:31.881Z,4.20
2022-12-08T15:27:59.285Z,3.80
2022-12-08T15:30:26.752Z,3.80
2022-12-08T15:32:56.050Z,3.70
2022-12-08T15:35:23.502Z,3.70
2022-12-08T15:37:50.829Z,3.80
2022-12-08T15:40:23.104Z,4.50
2022-12-08T15:42:50.416Z,3.70
2022-12-08T15:45:18.082Z,3.90
2022-12-08T15:47:45.875Z,3.80
2022-12-08T15:50:19.178Z,3.80
2022-12-08T15:52:47.288Z,3.80
2022-12-08T15:55:16.350Z,4.30
2022-12-08T16:00:53.839Z,3.80
2022-12-08T16:09:23.459Z,3.80
2022-12-08T16:12:10.527Z,3.50
2022-12-08T16:17:27.067Z,3.60
2022-12-08T16:19:54.928Z,3.60
2022-12-08T16:25:21.614Z,3.60
2022-12-08T16:28:08.293Z,3.60
2022-12-08T16:30:40.246Z,3.60
2022-12-08T16:33:07.852Z,3.60
2022-12-08T16:35:35.228Z,3.50
2022-12-08T16:38:02.537Z,3.50
2022-12-08T16:40:30.089Z,3.50
2022-12-08T16:42:57.825Z,3.50
2022-12-08T16:45:28.291Z,3.50
2022-12-08T16:48:01.859Z,3.50
2022-12-08T16:50:32.396Z,3.50
2022-12-08T16:53:06.657Z,3.50
2022-12-08T16:55:34.920Z,3.50
2022-12-08T16:58:05.193Z,3.20
2022-12-08T17:00:37.366Z,3.50
2022-12-08T17:03:06.220Z,3.40
2022-12-08T17:05:33.683Z,3.40
2022-12-08T17:08:01.058Z,3.40
2022-12-08T17:10:30.593Z,3.40
2022-12-08T17:12:57.952Z,3.40
2022-12-08T17:15:26.069Z,3.40
2022-12-08T17:17:54.042Z,4.60
2022-12-08T17:20:24.393Z,3.30
2022-12-08T17:22:55.324Z,3.20
2022-12-08T17:25:22.706Z,3.20
2022-12-08T17:27:50.097Z,3.20
2022-12-08T17:30:19.121Z,3.20
2022-12-08T17:32:46.807Z,3.20
2022-12-08T17:35:15.212Z,2.80
2022-12-08T17:37:43.847Z,3.10
2022-12-08T17:40:11.712Z,3.10
2022-12-08T17:42:39.437Z,3.10
2022-12-08T17:45:08.134Z,3.00
2022-12-08T17:47:36.430Z,2.70
2022-12-08T17:50:05.027Z,2.60
2022-12-08T17:52:32.475Z,2.50
2022-12-08T17:54:59.816Z,2.40
2022-12-08T17:57:27.259Z,2.20
2022-12-08T17:59:54.548Z,2.20
2022-12-08T18:02:21.901Z,2.20
2022-12-08T18:04:49.320Z,2.10
2022-12-08T18:07:16.802Z,2.20
2022-12-08T18:09:44.126Z,2.10
2022-12-08T18:12:11.692Z,2.00
2022-12-08T18:14:39.251Z,2.00
2022-12-08T18:17:06.942Z,1.90
2022-12-08T18:19:34.417Z,1.80
2022-12-08T18:22:01.777Z,1.80
2022-12-08T18:24:29.100Z,1.80
2022-12-08T18:26:57.815Z,0.50
2022-12-08T18:29:25.729Z,1.80
2022-12-08T18:31:53.303Z,1.90
2022-12-08T18:34:21.238Z,2.00
2022-12-08T18:36:49.112Z,2.00
2022-12-08T18:39:28.993Z,2.20
2022-12-08T18:41:57.926Z,2.40
2022-12-08T18:44:25.550Z,2.10
2022-12-08T18:46:52.947Z,2.10
2022-12-08T18:49:20.371Z,2.00
2022-12-08T18:51:47.760Z,2.00
2022-12-08T18:54:15.069Z,2.00
2022-12-08T18:56:42.408Z,2.10
2022-12-08T18:59:12.280Z,2.10
2022-12-08T19:01:40.779Z,2.00
2022-12-08T19:04:28.015Z,1.90
2022-12-08T19:06:56.693Z,1.90
2022-12-08T19:09:26.795Z,1.90
2022-12-08T19:11:55.239Z,2.00
2022-12-08T19:14:27.713Z,2.00
2022-12-08T19:16:58.632Z,2.00
2022-12-08T19:19:27.620Z,1.90
2022-12-08T19:21:55.049Z,4.70
2022-12-08T19:24:22.892Z,2.00
2022-12-08T19:26:50.240Z,2.10
2022-12-08T19:29:17.848Z,2.10
2022-12-08T19:31:45.539Z,2.20
2022-12-08T19:34:14.131Z,2.30
2022-12-08T19:36:43.182Z,2.30
2022-12-08T19:39:38.689Z,2.20
2022-12-08T19:42:39.274Z,2.10
2022-12-08T19:45:15.657Z,2.00
2022-12-08T19:47:43.578Z,1.90
2022-12-08T19:50:32.120Z,1.90
2022-12-08T19:53:00.052Z,1.50
2022-12-08T19:55:28.270Z,1.70
2022-12-08T19:57:57.147Z,1.70
2022-12-08T20:00:24.651Z,1.70
2022-12-08T20:02:52.180Z,1.70
2022-12-08T20:05:19.636Z,1.70
2022-12-08T20:07:47.177Z,1.70
2022-12-08T20:10:22.109Z,1.70
2022-12-08T20:12:49.627Z,1.70
2022-12-08T20:15:17.062Z,1.70
2022-12-08T20:17:44.502Z,1.70
2022-12-08T20:20:13.332Z,1.70
2022-12-08T20:22:41.479Z,1.70
2022-12-08T20:25:12.842Z,1.70
2022-12-08T20:27:41.507Z,1.60
2022-12-08T20:30:15.033Z,1.50
2022-12-08T20:32:44.682Z,1.50
2022-12-08T20:35:12.125Z,1.50
2022-12-08T20:37:39.442Z,1.40
2022-12-08T20:40:07.766Z,1.40
2022-12-08T20:42:35.138Z,1.40
2022-12-08T20:45:02.571Z,0.30
2022-12-08T20:47:30.262Z,1.60
2022-12-08T20:49:57.790Z,1.70
2022-12-08T20:52:25.397Z,1.70
2022-12-08T20:54:52.782Z,1.70
2022-12-08T20:57:20.169Z,1.70
2022-12-08T20:59:47.536Z,1.80
2022-12-08T21:02:14.980Z,1.80
2022-12-08T21:04:42.916Z,1.80
2022-12-08T21:07:10.675Z,1.80
2022-12-08T21:09:38.194Z,1.80
2022-12-08T21:12:05.840Z,1.80
2022-12-08T21:14:33.752Z,1.80
2022-12-08T21:17:01.172Z,1.80
2022-12-08T21:19:28.910Z,1.80
2022-12-08T21:21:56.381Z,1.70
2022-12-08T21:24:26.401Z,1.80
2022-12-08T21:26:56.242Z,1.80
2022-12-08T21:29:23.706Z,1.90
2022-12-08T21:31:51.914Z,1.70
2022-12-08T21:34:19.502Z,4.90
2022-12-08T21:36:46.962Z,2.10
2022-12-08T21:39:14.357Z,2.10
2022-12-08T21:42:00.374Z,2.00
2022-12-08T21:44:28.082Z,2.00
2022-12-08T21:46:55.601Z,2.00
2022-12-08T21:49:23.211Z,2.00
2022-12-08T21:51:50.983Z,2.10
2022-12-08T21:54:19.400Z,2.10
2022-12-08T21:56:48.389Z,2.00
2022-12-08T21:59:16.710Z,2.00
2022-12-08T22:01:45.137Z,1.90
2022-12-08T22:04:19.533Z,1.80
2022-12-08T22:06:48.073Z,1.90
2022-12-08T22:09:15.852Z,2.00
2022-12-08T22:11:44.462Z,1.90
2022-12-08T22:14:14.955Z,1.90
2022-12-08T22:16:44.107Z,1.90
2022-12-08T22:19:12.529Z,1.90
2022-12-08T22:21:40.350Z,1.80
2022-12-08T22:24:08.272Z,1.80
2022-12-08T22:26:36.110Z,1.70
2022-12-08T22:29:03.717Z,2.00
2022-12-08T22:31:31.111Z,1.80
2022-12-08T22:33:59.938Z,2.30
2022-12-08T22:36:28.157Z,1.70
2022-12-08T22:38:55.985Z,1.70
2022-12-08T22:41:23.840Z,1.80
2022-12-08T22:43:51.387Z,1.50
2022-12-08T22:46:21.420Z,1.70
2022-12-08T22:48:49.648Z,1.70
2022-12-08T22:51:18.232Z,1.70
2022-12-08T22:53:46.648Z,4.20
2022-12-08T22:56:15.973Z,1.70
2022-12-08T22:58:44.477Z,2.50
2022-12-08T23:01:30.639Z,1.50
2022-12-08T23:03:59.277Z,1.60
2022-12-08T23:06:28.007Z,1.70
2022-12-08T23:08:56.044Z,1.70
2022-12-08T23:11:25.980Z,1.70
2022-12-08T23:13:53.668Z,1.70
2022-12-08T23:16:21.104Z,1.60
2022-12-08T23:18:48.882Z,1.50
2022-12-08T23:21:18.951Z,1.50
2022-12-08T23:23:47.216Z,1.40
2022-12-08T23:26:26.935Z,1.30
2022-12-08T23:28:55.106Z,0.80
2022-12-08T23:31:23.475Z,1.20
2022-12-08T23:33:51.902Z,1.20
2022-12-08T23:36:20.937Z,1.10
2022-12-08T23:38:48.496Z,1.00
2022-12-08T23:41:16.687Z,1.00
2022-12-08T23:43:50.027Z,1.00
2022-12-08T23:46:20.329Z,1.00
2022-12-08T23:48:48.205Z,1.00
2022-12-08T23:51:15.924Z,1.10
2022-12-08T23:53:44.063Z,1.10
2022-12-08T23:56:15.054Z,1.20
2022-12-08T23:58:43.645Z,1.30
